sensor_id;sensor_type;location;lat;lon;timestamp;P1;P2;P0
51258;PMS7003;37327;54.254;18.504;2023-03-23T00:02:02;20;18;14
51258;PMS7003;37327;54.254;18.504;2023-03-23T00:05:20;17;17;14
51258;PMS7003;37327;54.254;18.504;2023-03-23T00:08:38;17;16;14
51258;PMS7003;37327;54.254;18.504;2023-03-23T00:12:02;18;17;14
51258;PMS7003;37327;54.254;18.504;2023-03-23T00:15:23;14;14;11
51258;PMS7003;37327;54.254;18.504;2023-03-23T00:18:41;19;17;14
51258;PMS7003;37327;54.254;18.504;2023-03-23T00:21:58;18;18;14
51258;PMS7003;37327;54.254;18.504;2023-03-23T00:25:18;15;14;13
51258;PMS7003;37327;54.254;18.504;2023-03-23T00:28:35;19;16;13
51258;PMS7003;37327;54.254;18.504;2023-03-23T00:31:52;16;13;12
51258;PMS7003;37327;54.254;18.504;2023-03-23T00:35:09;16;16;14
51258;PMS7003;37327;54.254;18.504;2023-03-23T00:38:27;19;18;14
51258;PMS7003;37327;54.254;18.504;2023-03-23T00:41:44;16;16;14
51258;PMS7003;37327;54.254;18.504;2023-03-23T00:45:04;16;16;14
51258;PMS7003;37327;54.254;18.504;2023-03-23T00:48:28;15;15;13
51258;PMS7003;37327;54.254;18.504;2023-03-23T00:51:48;14;14;11
51258;PMS7003;37327;54.254;18.504;2023-03-23T00:55:06;20;15;12
51258;PMS7003;37327;54.254;18.504;2023-03-23T00:58:24;17;16;13
51258;PMS7003;37327;54.254;18.504;2023-03-23T01:01:41;17;16;13
51258;PMS7003;37327;54.254;18.504;2023-03-23T01:04:59;17;17;15
51258;PMS7003;37327;54.254;18.504;2023-03-23T01:08:16;17;16;14
51258;PMS7003;37327;54.254;18.504;2023-03-23T01:11:34;21;17;14
51258;PMS7003;37327;54.254;18.504;2023-03-23T01:14:53;16;16;12
51258;PMS7003;37327;54.254;18.504;2023-03-23T01:18:11;17;16;15
51258;PMS7003;37327;54.254;18.504;2023-03-23T01:21:28;21;15;14
51258;PMS7003;37327;54.254;18.504;2023-03-23T01:24:46;17;16;12
51258;PMS7003;37327;54.254;18.504;2023-03-23T01:28:04;15;15;13
51258;PMS7003;37327;54.254;18.504;2023-03-23T01:31:22;17;17;14
51258;PMS7003;37327;54.254;18.504;2023-03-23T01:34:42;12;12;10
51258;PMS7003;37327;54.254;18.504;2023-03-23T01:37:59;15;15;13
51258;PMS7003;37327;54.254;18.504;2023-03-23T01:41:17;15;14;12
51258;PMS7003;37327;54.254;18.504;2023-03-23T01:51:35;14;13;9
51258;PMS7003;37327;54.254;18.504;2023-03-23T01:54:57;14;13;11
51258;PMS7003;37327;54.254;18.504;2023-03-23T01:58:17;14;13;12
51258;PMS7003;37327;54.254;18.504;2023-03-23T02:01:38;12;12;10
51258;PMS7003;37327;54.254;18.504;2023-03-23T02:05:02;16;15;12
51258;PMS7003;37327;54.254;18.504;2023-03-23T02:08:26;15;13;11
51258;PMS7003;37327;54.254;18.504;2023-03-23T02:11:45;13;10;10
51258;PMS7003;37327;54.254;18.504;2023-03-23T02:15:06;12;12;11
51258;PMS7003;37327;54.254;18.504;2023-03-23T02:32:27;12;11;10
51258;PMS7003;37327;54.254;18.504;2023-03-23T02:36:38;16;14;12
51258;PMS7003;37327;54.254;18.504;2023-03-23T02:39:21;11;11;10
51258;PMS7003;37327;54.254;18.504;2023-03-23T02:42:48;12;12;11
51258;PMS7003;37327;54.254;18.504;2023-03-23T02:46:11;11;11;9
51258;PMS7003;37327;54.254;18.504;2023-03-23T02:49:31;10;9;7
51258;PMS7003;37327;54.254;18.504;2023-03-23T02:52:54;11;11;8
51258;PMS7003;37327;54.254;18.504;2023-03-23T02:56:15;14;12;11
51258;PMS7003;37327;54.254;18.504;2023-03-23T02:59:34;10;10;9
51258;PMS7003;37327;54.254;18.504;2023-03-23T03:02:52;12;11;9
51258;PMS7003;37327;54.254;18.504;2023-03-23T03:06:33;10;10;9
51258;PMS7003;37327;54.254;18.504;2023-03-23T03:09:53;7;7;6
51258;PMS7003;37327;54.254;18.504;2023-03-23T03:20:14;12;11;11
51258;PMS7003;37327;54.254;18.504;2023-03-23T03:23:32;11;10;9
51258;PMS7003;37327;54.254;18.504;2023-03-23T03:26:53;9;6;6
51258;PMS7003;37327;54.254;18.504;2023-03-23T03:30:15;11;10;9
51258;PMS7003;37327;54.254;18.504;2023-03-23T03:33:38;11;9;8
51258;PMS7003;37327;54.254;18.504;2023-03-23T03:36:56;12;10;9
51258;PMS7003;37327;54.254;18.504;2023-03-23T03:40:15;10;10;8
51258;PMS7003;37327;54.254;18.504;2023-03-23T03:43:35;6;6;5
51258;PMS7003;37327;54.254;18.504;2023-03-23T03:46:53;14;11;10
51258;PMS7003;37327;54.254;18.504;2023-03-23T03:50:10;10;9;8
51258;PMS7003;37327;54.254;18.504;2023-03-23T03:53:29;12;11;10
51258;PMS7003;37327;54.254;18.504;2023-03-23T03:56:47;12;11;9
51258;PMS7003;37327;54.254;18.504;2023-03-23T04:00:05;11;11;10
51258;PMS7003;37327;54.254;18.504;2023-03-23T04:03:30;12;11;9
51258;PMS7003;37327;54.254;18.504;2023-03-23T04:06:50;11;11;10
51258;PMS7003;37327;54.254;18.504;2023-03-23T04:10:08;11;10;9
51258;PMS7003;37327;54.254;18.504;2023-03-23T04:13:29;10;10;9
51258;PMS7003;37327;54.254;18.504;2023-03-23T04:16:47;12;9;8
51258;PMS7003;37327;54.254;18.504;2023-03-23T04:20:13;15;11;10
51258;PMS7003;37327;54.254;18.504;2023-03-23T04:23:34;6;6;6
51258;PMS7003;37327;54.254;18.504;2023-03-23T04:26:52;9;9;8
51258;PMS7003;37327;54.254;18.504;2023-03-23T04:30:11;11;11;10
51258;PMS7003;37327;54.254;18.504;2023-03-23T04:33:29;7;6;6
51258;PMS7003;37327;54.254;18.504;2023-03-23T04:36:47;6;6;6
51258;PMS7003;37327;54.254;18.504;2023-03-23T04:40:05;12;11;9
51258;PMS7003;37327;54.254;18.504;2023-03-23T04:43:30;10;10;9
51258;PMS7003;37327;54.254;18.504;2023-03-23T04:46:53;12;11;9
51258;PMS7003;37327;54.254;18.504;2023-03-23T04:50:11;12;10;9
51258;PMS7003;37327;54.254;18.504;2023-03-23T04:53:29;11;10;8
51258;PMS7003;37327;54.254;18.504;2023-03-23T04:56:47;12;11;11
51258;PMS7003;37327;54.254;18.504;2023-03-23T05:00:05;15;11;9
51258;PMS7003;37327;54.254;18.504;2023-03-23T05:03:32;12;10;8
51258;PMS7003;37327;54.254;18.504;2023-03-23T05:06:53;11;10;9
51258;PMS7003;37327;54.254;18.504;2023-03-23T05:10:11;11;11;10
51258;PMS7003;37327;54.254;18.504;2023-03-23T05:13:30;12;11;10
51258;PMS7003;37327;54.254;18.504;2023-03-23T05:16:47;15;14;12
51258;PMS7003;37327;54.254;18.504;2023-03-23T05:20:06;12;11;10
51258;PMS7003;37327;54.254;18.504;2023-03-23T05:23:27;11;11;10
51258;PMS7003;37327;54.254;18.504;2023-03-23T05:26:51;10;9;8
51258;PMS7003;37327;54.254;18.504;2023-03-23T05:30:09;15;13;11
51258;PMS7003;37327;54.254;18.504;2023-03-23T05:33:31;12;10;9
51258;PMS7003;37327;54.254;18.504;2023-03-23T05:36:49;11;10;9
51258;PMS7003;37327;54.254;18.504;2023-03-23T05:40:09;13;11;9
51258;PMS7003;37327;54.254;18.504;2023-03-23T05:43:28;10;9;8
51258;PMS7003;37327;54.254;18.504;2023-03-23T05:46:45;9;9;8
51258;PMS7003;37327;54.254;18.504;2023-03-23T05:50:03;10;9;9
51258;PMS7003;37327;54.254;18.504;2023-03-23T05:53:22;11;10;9
51258;PMS7003;37327;54.254;18.504;2023-03-23T05:56:40;6;6;6
51258;PMS7003;37327;54.254;18.504;2023-03-23T05:59:59;10;10;8
51258;PMS7003;37327;54.254;18.504;2023-03-23T06:03:27;7;7;7
51258;PMS7003;37327;54.254;18.504;2023-03-23T06:06:45;10;7;7
51258;PMS7003;37327;54.254;18.504;2023-03-23T06:10:02;10;9;8
51258;PMS7003;37327;54.254;18.504;2023-03-23T06:13:21;9;9;8
51258;PMS7003;37327;54.254;18.504;2023-03-23T06:16:40;8;8;8
51258;PMS7003;37327;54.254;18.504;2023-03-23T06:19:57;12;11;9
51258;PMS7003;37327;54.254;18.504;2023-03-23T06:23:16;7;6;6
51258;PMS7003;37327;54.254;18.504;2023-03-23T06:26:35;10;7;7
51258;PMS7003;37327;54.254;18.504;2023-03-23T06:30:01;6;6;6
51258;PMS7003;37327;54.254;18.504;2023-03-23T06:33:20;7;7;6
51258;PMS7003;37327;54.254;18.504;2023-03-23T06:36:40;10;7;6
51258;PMS7003;37327;54.254;18.504;2023-03-23T06:40:00;6;5;5
51258;PMS7003;37327;54.254;18.504;2023-03-23T06:43:20;7;7;6
51258;PMS7003;37327;54.254;18.504;2023-03-23T06:46:37;6;6;6
51258;PMS7003;37327;54.254;18.504;2023-03-23T06:49:54;5;5;5
51258;PMS7003;37327;54.254;18.504;2023-03-23T06:53:12;6;6;5
51258;PMS7003;37327;54.254;18.504;2023-03-23T06:56:30;5;5;5
51258;PMS7003;37327;54.254;18.504;2023-03-23T06:59:48;6;6;5
51258;PMS7003;37327;54.254;18.504;2023-03-23T07:03:06;6;6;5
51258;PMS7003;37327;54.254;18.504;2023-03-23T07:06:24;5;5;5
51258;PMS7003;37327;54.254;18.504;2023-03-23T07:09:43;5;5;4
51258;PMS7003;37327;54.254;18.504;2023-03-23T07:13:00;7;7;6
51258;PMS7003;37327;54.254;18.504;2023-03-23T07:16:18;6;5;4
51258;PMS7003;37327;54.254;18.504;2023-03-23T07:19:35;6;6;5
51258;PMS7003;37327;54.254;18.504;2023-03-23T07:22:53;5;5;5
51258;PMS7003;37327;54.254;18.504;2023-03-23T07:26:11;8;8;6
51258;PMS7003;37327;54.254;18.504;2023-03-23T07:29:29;6;6;5
51258;PMS7003;37327;54.254;18.504;2023-03-23T07:32:54;9;6;6
51258;PMS7003;37327;54.254;18.504;2023-03-23T07:36:12;8;7;6
51258;PMS7003;37327;54.254;18.504;2023-03-23T07:39:30;6;6;6
51258;PMS7003;37327;54.254;18.504;2023-03-23T07:42:53;6;6;6
51258;PMS7003;37327;54.254;18.504;2023-03-23T07:46:13;6;6;6
51258;PMS7003;37327;54.254;18.504;2023-03-23T07:49:30;7;6;6
51258;PMS7003;37327;54.254;18.504;2023-03-23T07:52:50;6;6;6
51258;PMS7003;37327;54.254;18.504;2023-03-23T07:56:11;7;7;6
51258;PMS7003;37327;54.254;18.504;2023-03-23T07:59:35;10;7;7
51258;PMS7003;37327;54.254;18.504;2023-03-23T08:02:53;6;6;6
51258;PMS7003;37327;54.254;18.504;2023-03-23T08:06:13;9;8;7
51258;PMS7003;37327;54.254;18.504;2023-03-23T08:09:31;7;7;6
51258;PMS7003;37327;54.254;18.504;2023-03-23T08:12:53;8;7;6
51258;PMS7003;37327;54.254;18.504;2023-03-23T08:16:12;6;6;5
51258;PMS7003;37327;54.254;18.504;2023-03-23T08:19:30;6;6;5
51258;PMS7003;37327;54.254;18.504;2023-03-23T08:22:54;8;7;6
51258;PMS7003;37327;54.254;18.504;2023-03-23T08:26:14;2;2;2
51258;PMS7003;37327;54.254;18.504;2023-03-23T08:29:34;4;2;2
51258;PMS7003;37327;54.254;18.504;2023-03-23T08:32:52;5;5;5
51258;PMS7003;37327;54.254;18.504;2023-03-23T08:36:10;4;4;4
51258;PMS7003;37327;54.254;18.504;2023-03-23T08:39:29;6;6;5
51258;PMS7003;37327;54.254;18.504;2023-03-23T08:42:48;6;6;5
51258;PMS7003;37327;54.254;18.504;2023-03-23T08:46:07;5;5;5
51258;PMS7003;37327;54.254;18.504;2023-03-23T08:49:27;4;4;4
51258;PMS7003;37327;54.254;18.504;2023-03-23T08:52:46;4;3;3
51258;PMS7003;37327;54.254;18.504;2023-03-23T08:56:06;6;6;6
51258;PMS7003;37327;54.254;18.504;2023-03-23T08:59:26;5;3;3
51258;PMS7003;37327;54.254;18.504;2023-03-23T09:02:44;5;4;4
51258;PMS7003;37327;54.254;18.504;2023-03-23T09:06:05;4;3;3
51258;PMS7003;37327;54.254;18.504;2023-03-23T09:09:24;4;4;4
51258;PMS7003;37327;54.254;18.504;2023-03-23T09:12:43;5;5;5
51258;PMS7003;37327;54.254;18.504;2023-03-23T09:16:02;4;4;3
51258;PMS7003;37327;54.254;18.504;2023-03-23T09:19:20;4;4;3
51258;PMS7003;37327;54.254;18.504;2023-03-23T09:22:39;4;4;3
51258;PMS7003;37327;54.254;18.504;2023-03-23T09:25:59;5;4;4
51258;PMS7003;37327;54.254;18.504;2023-03-23T09:29:17;4;4;4
51258;PMS7003;37327;54.254;18.504;2023-03-23T09:32:35;5;5;5
51258;PMS7003;37327;54.254;18.504;2023-03-23T09:35:52;4;4;4
51258;PMS7003;37327;54.254;18.504;2023-03-23T09:39:10;4;4;3
51258;PMS7003;37327;54.254;18.504;2023-03-23T09:46:04;3;3;3
51258;PMS7003;37327;54.254;18.504;2023-03-23T09:56:30;3;3;3
51258;PMS7003;37327;54.254;18.504;2023-03-23T09:59:55;4;3;3
51258;PMS7003;37327;54.254;18.504;2023-03-23T10:06:48;2;2;2
51258;PMS7003;37327;54.254;18.504;2023-03-23T10:10:08;3;3;2
51258;PMS7003;37327;54.254;18.504;2023-03-23T10:17:13;5;2;2
51258;PMS7003;37327;54.254;18.504;2023-03-23T10:20:36;3;3;3
51258;PMS7003;37327;54.254;18.504;2023-03-23T10:24:03;2;2;2
51258;PMS7003;37327;54.254;18.504;2023-03-23T10:27:26;2;2;2
51258;PMS7003;37327;54.254;18.504;2023-03-23T10:30:56;2;1;1
51258;PMS7003;37327;54.254;18.504;2023-03-23T10:34:22;2;1;1
51258;PMS7003;37327;54.254;18.504;2023-03-23T10:37:48;2;2;2
51258;PMS7003;37327;54.254;18.504;2023-03-23T10:41:11;2;1;1
51258;PMS7003;37327;54.254;18.504;2023-03-23T10:44:32;3;2;2
51258;PMS7003;37327;54.254;18.504;2023-03-23T10:47:55;3;2;2
51258;PMS7003;37327;54.254;18.504;2023-03-23T10:51:17;1;1;1
51258;PMS7003;37327;54.254;18.504;2023-03-23T10:54:45;1;1;1
51258;PMS7003;37327;54.254;18.504;2023-03-23T10:58:09;2;2;1
51258;PMS7003;37327;54.254;18.504;2023-03-23T11:01:32;2;2;2
51258;PMS7003;37327;54.254;18.504;2023-03-23T11:04:54;2;1;1
51258;PMS7003;37327;54.254;18.504;2023-03-23T11:08:19;1;1;1
51258;PMS7003;37327;54.254;18.504;2023-03-23T11:11:39;1;0;0
51258;PMS7003;37327;54.254;18.504;2023-03-23T11:15:04;1;1;1
51258;PMS7003;37327;54.254;18.504;2023-03-23T11:25:25;2;1;1
51258;PMS7003;37327;54.254;18.504;2023-03-23T11:28:45;1;1;1
51258;PMS7003;37327;54.254;18.504;2023-03-23T11:32:10;1;1;1
51258;PMS7003;37327;54.254;18.504;2023-03-23T11:35:32;1;1;1
51258;PMS7003;37327;54.254;18.504;2023-03-23T11:38:52;1;1;1
51258;PMS7003;37327;54.254;18.504;2023-03-23T11:42:18;1;1;1
51258;PMS7003;37327;54.254;18.504;2023-03-23T11:45:39;1;1;1
51258;PMS7003;37327;54.254;18.504;2023-03-23T11:49:03;0;0;0
51258;PMS7003;37327;54.254;18.504;2023-03-23T12:16:55;1;1;1
51258;PMS7003;37327;54.254;18.504;2023-03-23T12:20:29;4;2;2
51258;PMS7003;37327;54.254;18.504;2023-03-23T12:30:52;1;1;1
51258;PMS7003;37327;54.254;18.504;2023-03-23T12:37:54;2;2;2
51258;PMS7003;37327;54.254;18.504;2023-03-23T12:48:23;0;0;0
51258;PMS7003;37327;54.254;18.504;2023-03-23T12:58:55;1;1;1
51258;PMS7003;37327;54.254;18.504;2023-03-23T13:02:39;1;1;1
51258;PMS7003;37327;54.254;18.504;2023-03-23T13:05:54;1;1;1
51258;PMS7003;37327;54.254;18.504;2023-03-23T13:12:45;3;0;0
51258;PMS7003;37327;54.254;18.504;2023-03-23T13:23:04;0;0;0
51258;PMS7003;37327;54.254;18.504;2023-03-23T13:26:30;0;0;0
51258;PMS7003;37327;54.254;18.504;2023-03-23T13:29:54;1;0;0
51258;PMS7003;37327;54.254;18.504;2023-03-23T13:33:13;0;0;0
51258;PMS7003;37327;54.254;18.504;2023-03-23T13:36:34;0;0;0
51258;PMS7003;37327;54.254;18.504;2023-03-23T13:43:31;1;1;0
51258;PMS7003;37327;54.254;18.504;2023-03-23T13:53:47;0;0;0
51258;PMS7003;37327;54.254;18.504;2023-03-23T13:57:19;0;0;0
51258;PMS7003;37327;54.254;18.504;2023-03-23T14:00:35;1;0;0
51258;PMS7003;37327;54.254;18.504;2023-03-23T14:03:57;0;0;0
51258;PMS7003;37327;54.254;18.504;2023-03-23T14:07:19;0;0;0
51258;PMS7003;37327;54.254;18.504;2023-03-23T14:10:38;0;0;0
51258;PMS7003;37327;54.254;18.504;2023-03-23T14:14:00;0;0;0
51258;PMS7003;37327;54.254;18.504;2023-03-23T14:17:22;1;0;0
51258;PMS7003;37327;54.254;18.504;2023-03-23T14:20:43;0;0;0
51258;PMS7003;37327;54.254;18.504;2023-03-23T14:26:45;1;0;0
51258;PMS7003;37327;54.254;18.504;2023-03-23T14:30:06;1;1;1
51258;PMS7003;37327;54.254;18.504;2023-03-23T14:33:25;2;1;1
51258;PMS7003;37327;54.254;18.504;2023-03-23T14:36:44;1;1;1
51258;PMS7003;37327;54.254;18.504;2023-03-23T14:40:02;0;0;0
51258;PMS7003;37327;54.254;18.504;2023-03-23T14:43:23;1;1;1
51258;PMS7003;37327;54.254;18.504;2023-03-23T14:46:41;3;1;1
51258;PMS7003;37327;54.254;18.504;2023-03-23T14:50:03;1;1;1
51258;PMS7003;37327;54.254;18.504;2023-03-23T14:53:23;0;0;0
51258;PMS7003;37327;54.254;18.504;2023-03-23T14:56:46;0;0;0
51258;PMS7003;37327;54.254;18.504;2023-03-23T15:00:04;0;0;0
51258;PMS7003;37327;54.254;18.504;2023-03-23T15:03:27;1;1;1
51258;PMS7003;37327;54.254;18.504;2023-03-23T15:06:53;1;1;1
51258;PMS7003;37327;54.254;18.504;2023-03-23T15:10:17;1;1;1
51258;PMS7003;37327;54.254;18.504;2023-03-23T15:13:37;1;0;0
51258;PMS7003;37327;54.254;18.504;2023-03-23T15:16:59;1;1;0
51258;PMS7003;37327;54.254;18.504;2023-03-23T15:23:46;1;1;1
51258;PMS7003;37327;54.254;18.504;2023-03-23T15:30:35;0;0;0
51258;PMS7003;37327;54.254;18.504;2023-03-23T15:33:59;0;0;0
51258;PMS7003;37327;54.254;18.504;2023-03-23T15:37:28;0;0;0
51258;PMS7003;37327;54.254;18.504;2023-03-23T15:44:20;0;0;0
51258;PMS7003;37327;54.254;18.504;2023-03-23T15:47:47;1;1;1
51258;PMS7003;37327;54.254;18.504;2023-03-23T15:51:06;1;1;1
51258;PMS7003;37327;54.254;18.504;2023-03-23T15:54:28;1;1;1
51258;PMS7003;37327;54.254;18.504;2023-03-23T15:57:48;0;0;0
51258;PMS7003;37327;54.254;18.504;2023-03-23T16:01:16;1;1;1
51258;PMS7003;37327;54.254;18.504;2023-03-23T16:04:32;2;2;1
51258;PMS7003;37327;54.254;18.504;2023-03-23T16:07:49;2;1;1
51258;PMS7003;37327;54.254;18.504;2023-03-23T16:11:10;1;1;1
51258;PMS7003;37327;54.254;18.504;2023-03-23T16:14:29;0;0;0
51258;PMS7003;37327;54.254;18.504;2023-03-23T16:17:46;2;1;1
51258;PMS7003;37327;54.254;18.504;2023-03-23T16:21:03;1;1;1
51258;PMS7003;37327;54.254;18.504;2023-03-23T16:24:21;1;1;1
51258;PMS7003;37327;54.254;18.504;2023-03-23T16:27:38;1;1;1
51258;PMS7003;37327;54.254;18.504;2023-03-23T16:30:57;2;1;1
51258;PMS7003;37327;54.254;18.504;2023-03-23T16:34:14;1;1;1
51258;PMS7003;37327;54.254;18.504;2023-03-23T16:37:31;1;1;1
51258;PMS7003;37327;54.254;18.504;2023-03-23T16:40:49;1;1;1
51258;PMS7003;37327;54.254;18.504;2023-03-23T16:44:07;1;1;1
51258;PMS7003;37327;54.254;18.504;2023-03-23T16:47:25;1;1;1
51258;PMS7003;37327;54.254;18.504;2023-03-23T16:50:43;1;1;1
51258;PMS7003;37327;54.254;18.504;2023-03-23T16:54:00;1;1;1
51258;PMS7003;37327;54.254;18.504;2023-03-23T16:57:18;0;0;0
51258;PMS7003;37327;54.254;18.504;2023-03-23T17:00:36;0;0;0
51258;PMS7003;37327;54.254;18.504;2023-03-23T17:03:57;0;0;0
51258;PMS7003;37327;54.254;18.504;2023-03-23T17:07:14;0;0;0
51258;PMS7003;37327;54.254;18.504;2023-03-23T17:10:31;0;0;0
51258;PMS7003;37327;54.254;18.504;2023-03-23T17:13:49;0;0;0
51258;PMS7003;37327;54.254;18.504;2023-03-23T17:17:07;0;0;0
51258;PMS7003;37327;54.254;18.504;2023-03-23T17:20:25;0;0;0
51258;PMS7003;37327;54.254;18.504;2023-03-23T17:23:42;0;0;0
51258;PMS7003;37327;54.254;18.504;2023-03-23T17:26:59;0;0;0
51258;PMS7003;37327;54.254;18.504;2023-03-23T17:30:18;0;0;0
51258;PMS7003;37327;54.254;18.504;2023-03-23T17:33:36;0;0;0
51258;PMS7003;37327;54.254;18.504;2023-03-23T17:36:53;1;0;0
51258;PMS7003;37327;54.254;18.504;2023-03-23T17:40:11;0;0;0
51258;PMS7003;37327;54.254;18.504;2023-03-23T17:43:29;0;0;0
51258;PMS7003;37327;54.254;18.504;2023-03-23T17:46:48;0;0;0
51258;PMS7003;37327;54.254;18.504;2023-03-23T17:50:07;0;0;0
51258;PMS7003;37327;54.254;18.504;2023-03-23T17:53:25;0;0;0
51258;PMS7003;37327;54.254;18.504;2023-03-23T17:56:42;0;0;0
51258;PMS7003;37327;54.254;18.504;2023-03-23T18:00:00;0;0;0
51258;PMS7003;37327;54.254;18.504;2023-03-23T18:03:18;0;0;0
51258;PMS7003;37327;54.254;18.504;2023-03-23T18:06:35;0;0;0
51258;PMS7003;37327;54.254;18.504;2023-03-23T18:09:57;0;0;0
51258;PMS7003;37327;54.254;18.504;2023-03-23T18:13:15;0;0;0
51258;PMS7003;37327;54.254;18.504;2023-03-23T18:16:32;0;0;0
51258;PMS7003;37327;54.254;18.504;2023-03-23T18:19:49;0;0;0
51258;PMS7003;37327;54.254;18.504;2023-03-23T18:23:07;1;0;0
51258;PMS7003;37327;54.254;18.504;2023-03-23T18:26:24;0;0;0
51258;PMS7003;37327;54.254;18.504;2023-03-23T18:29:42;1;0;0
51258;PMS7003;37327;54.254;18.504;2023-03-23T18:32:59;0;0;0
51258;PMS7003;37327;54.254;18.504;2023-03-23T18:36:17;1;1;1
51258;PMS7003;37327;54.254;18.504;2023-03-23T18:39:36;2;2;2
51258;PMS7003;37327;54.254;18.504;2023-03-23T18:42:54;2;2;1
51258;PMS7003;37327;54.254;18.504;2023-03-23T18:46:12;2;2;2
51258;PMS7003;37327;54.254;18.504;2023-03-23T18:49:30;2;2;2
51258;PMS7003;37327;54.254;18.504;2023-03-23T18:52:49;2;2;2
51258;PMS7003;37327;54.254;18.504;2023-03-23T18:56:08;2;2;1
51258;PMS7003;37327;54.254;18.504;2023-03-23T18:59:28;2;2;2
51258;PMS7003;37327;54.254;18.504;2023-03-23T19:02:48;2;2;2
51258;PMS7003;37327;54.254;18.504;2023-03-23T19:06:08;2;2;2
51258;PMS7003;37327;54.254;18.504;2023-03-23T19:09:35;1;1;1
51258;PMS7003;37327;54.254;18.504;2023-03-23T19:12:52;1;1;1
51258;PMS7003;37327;54.254;18.504;2023-03-23T19:16:11;2;1;1
51258;PMS7003;37327;54.254;18.504;2023-03-23T19:19:29;1;1;0
51258;PMS7003;37327;54.254;18.504;2023-03-23T19:22:46;0;0;0
51258;PMS7003;37327;54.254;18.504;2023-03-23T19:26:04;0;0;0
51258;PMS7003;37327;54.254;18.504;2023-03-23T19:29:22;0;0;0
51258;PMS7003;37327;54.254;18.504;2023-03-23T19:32:41;0;0;0
51258;PMS7003;37327;54.254;18.504;2023-03-23T19:35:59;0;0;0
51258;PMS7003;37327;54.254;18.504;2023-03-23T19:39:17;0;0;0
51258;PMS7003;37327;54.254;18.504;2023-03-23T19:42:34;0;0;0
51258;PMS7003;37327;54.254;18.504;2023-03-23T19:45:52;0;0;0
51258;PMS7003;37327;54.254;18.504;2023-03-23T19:49:09;0;0;0
51258;PMS7003;37327;54.254;18.504;2023-03-23T19:52:27;0;0;0
51258;PMS7003;37327;54.254;18.504;2023-03-23T19:55:44;0;0;0
51258;PMS7003;37327;54.254;18.504;2023-03-23T19:59:03;0;0;0
51258;PMS7003;37327;54.254;18.504;2023-03-23T20:02:25;0;0;0
51258;PMS7003;37327;54.254;18.504;2023-03-23T20:05:42;0;0;0
51258;PMS7003;37327;54.254;18.504;2023-03-23T20:09:01;0;0;0
51258;PMS7003;37327;54.254;18.504;2023-03-23T20:12:21;0;0;0
51258;PMS7003;37327;54.254;18.504;2023-03-23T20:15:39;0;0;0
51258;PMS7003;37327;54.254;18.504;2023-03-23T20:18:56;0;0;0
51258;PMS7003;37327;54.254;18.504;2023-03-23T20:22:13;0;0;0
51258;PMS7003;37327;54.254;18.504;2023-03-23T20:25:32;0;0;0
51258;PMS7003;37327;54.254;18.504;2023-03-23T20:28:52;0;0;0
51258;PMS7003;37327;54.254;18.504;2023-03-23T20:32:09;0;0;0
51258;PMS7003;37327;54.254;18.504;2023-03-23T20:35:27;0;0;0
51258;PMS7003;37327;54.254;18.504;2023-03-23T20:38:46;0;0;0
51258;PMS7003;37327;54.254;18.504;2023-03-23T20:42:04;0;0;0
51258;PMS7003;37327;54.254;18.504;2023-03-23T20:45:22;0;0;0
51258;PMS7003;37327;54.254;18.504;2023-03-23T20:48:41;0;0;0
51258;PMS7003;37327;54.254;18.504;2023-03-23T20:51:59;0;0;0
51258;PMS7003;37327;54.254;18.504;2023-03-23T20:55:17;0;0;0
51258;PMS7003;37327;54.254;18.504;2023-03-23T20:58:35;0;0;0
51258;PMS7003;37327;54.254;18.504;2023-03-23T21:01:53;0;0;0
51258;PMS7003;37327;54.254;18.504;2023-03-23T21:05:11;0;0;0
51258;PMS7003;37327;54.254;18.504;2023-03-23T21:08:28;0;0;0
51258;PMS7003;37327;54.254;18.504;2023-03-23T21:11:47;0;0;0
51258;PMS7003;37327;54.254;18.504;2023-03-23T21:15:06;0;0;0
51258;PMS7003;37327;54.254;18.504;2023-03-23T21:18:23;0;0;0
51258;PMS7003;37327;54.254;18.504;2023-03-23T21:21:41;0;0;0
51258;PMS7003;37327;54.254;18.504;2023-03-23T21:24:59;0;0;0
51258;PMS7003;37327;54.254;18.504;2023-03-23T21:28:17;1;0;0
51258;PMS7003;37327;54.254;18.504;2023-03-23T21:31:35;0;0;0
51258;PMS7003;37327;54.254;18.504;2023-03-23T21:34:53;0;0;0
51258;PMS7003;37327;54.254;18.504;2023-03-23T21:38:17;1;0;0
51258;PMS7003;37327;54.254;18.504;2023-03-23T21:41:40;0;0;0
51258;PMS7003;37327;54.254;18.504;2023-03-23T21:44:58;0;0;0
51258;PMS7003;37327;54.254;18.504;2023-03-23T21:48:18;0;0;0
51258;PMS7003;37327;54.254;18.504;2023-03-23T21:51:37;1;0;0
51258;PMS7003;37327;54.254;18.504;2023-03-23T21:54:54;0;0;0
51258;PMS7003;37327;54.254;18.504;2023-03-23T21:58:14;0;0;0
51258;PMS7003;37327;54.254;18.504;2023-03-23T22:01:31;2;0;0
51258;PMS7003;37327;54.254;18.504;2023-03-23T22:04:53;0;0;0
51258;PMS7003;37327;54.254;18.504;2023-03-23T22:08:12;0;0;0
51258;PMS7003;37327;54.254;18.504;2023-03-23T22:11:30;0;0;0
51258;PMS7003;37327;54.254;18.504;2023-03-23T22:14:48;0;0;0
51258;PMS7003;37327;54.254;18.504;2023-03-23T22:18:05;0;0;0
51258;PMS7003;37327;54.254;18.504;2023-03-23T22:21:23;1;0;0
51258;PMS7003;37327;54.254;18.504;2023-03-23T22:24:42;0;0;0
51258;PMS7003;37327;54.254;18.504;2023-03-23T22:28:00;0;0;0
51258;PMS7003;37327;54.254;18.504;2023-03-23T22:31:20;0;0;0
51258;PMS7003;37327;54.254;18.504;2023-03-23T22:34:39;0;0;0
51258;PMS7003;37327;54.254;18.504;2023-03-23T22:37:58;0;0;0
51258;PMS7003;37327;54.254;18.504;2023-03-23T22:41:22;2;0;0
51258;PMS7003;37327;54.254;18.504;2023-03-23T22:44:41;0;0;0
51258;PMS7003;37327;54.254;18.504;2023-03-23T22:47:59;0;0;0
51258;PMS7003;37327;54.254;18.504;2023-03-23T22:51:18;1;0;0
51258;PMS7003;37327;54.254;18.504;2023-03-23T22:54:37;0;0;0
51258;PMS7003;37327;54.254;18.504;2023-03-23T22:57:54;0;0;0
51258;PMS7003;37327;54.254;18.504;2023-03-23T23:01:12;0;0;0
51258;PMS7003;37327;54.254;18.504;2023-03-23T23:04:32;0;0;0
51258;PMS7003;37327;54.254;18.504;2023-03-23T23:07:49;0;0;0
51258;PMS7003;37327;54.254;18.504;2023-03-23T23:11:07;0;0;0
51258;PMS7003;37327;54.254;18.504;2023-03-23T23:14:27;0;0;0
51258;PMS7003;37327;54.254;18.504;2023-03-23T23:17:45;0;0;0
51258;PMS7003;37327;54.254;18.504;2023-03-23T23:21:07;0;0;0
51258;PMS7003;37327;54.254;18.504;2023-03-23T23:24:27;1;1;1
51258;PMS7003;37327;54.254;18.504;2023-03-23T23:27:46;0;0;0
51258;PMS7003;37327;54.254;18.504;2023-03-23T23:31:03;0;0;0
51258;PMS7003;37327;54.254;18.504;2023-03-23T23:34:29;0;0;0
51258;PMS7003;37327;54.254;18.504;2023-03-23T23:37:47;0;0;0
51258;PMS7003;37327;54.254;18.504;2023-03-23T23:41:05;1;1;1
51258;PMS7003;37327;54.254;18.504;2023-03-23T23:44:23;0;0;0
51258;PMS7003;37327;54.254;18.504;2023-03-23T23:47:41;0;0;0
51258;PMS7003;37327;54.254;18.504;2023-03-23T23:50:58;0;0;0
51258;PMS7003;37327;54.254;18.504;2023-03-23T23:54:16;0;0;0
51258;PMS7003;37327;54.254;18.504;2023-03-23T23:57:38;0;0;0
